Osceola Mills, PA (16666)

1:25 PM EST on February 27, 2017 (GMT -0500)
South Philipsburg | | Change Station

Elev 1444 ft 40.89 °N, 78.22 °W | Updated 7 seconds ago

Overcast
Overcast
46.7 °F
Feels Like 47 °F
N
3.0
Wind Variable Wind from South
Gusts 9.0 mph

Today
High -- | Low -- °F
--% Chance of Precip.
Yesterday
High -- | Low -- °F
Precip. -- in
Pressure 30.30 in
Visibility 10.0 miles
Clouds Overcast 8000 ft
Windchill 47 °F
Dew Point 25 °F
Humidity 43%
Rainfall 0.00 in
Snow Depth Not available.
6:49 AM 6:02 PM
New Moon, 2% visible
METAR KUNV 271753Z COR 21006KT 10SM OVC080 06/M09 A3030
Pressure 30.30 in
Visibility 10.0 miles
Clouds Overcast 8000 ft
Windchill 47 °F
Dew Point 25 °F
Humidity 43%
Rainfall 0.00 in
Snow Depth Not available.
6:49 AM 6:02 PM
New Moon, 2% visible
METAR KUNV 271753Z COR 21006KT 10SM OVC080 06/M09 A3030

Get Your Daily Forecast Email!

Thanks for signing up!

Be on the lookout for a verification email in your inbox.

You'll start receiving the daily forecast at 8 AM.

×

10-Day Weather Forecast

Almanac

Astronomy

Feb. 27, 2017 Rise Set
Actual Time
Civil Twilight
Nautical Twilight
Astronomical Twilight
Moon
Length of Visible Light
Length of Day
Tomorrow will be .
, % of the Moon is Illuminated

Today's Extremes

State Highs State Lows

Community

WunderPhotos

Upload Photos

1,962,540 photos uploaded!

WunderBlog® & News

Nearby

Air Quality

  Air Quality AQ Index Pollutant
Not available.

Snow Depth

Station Depth Elevation

Earthquake Activity

City Distance Mag. Time & Date
Minimum magnitude displayed is 2.5.

Coastal Water Temperatures

Place Temperature

Stations

Nearby Weather Stations

Station Location Temp. Windchill Dew Point Humidity Wind Precip. Elev Updated Type
                   

Watches & Warnings

There are currently no watches in effect.